Time;durP1;ratioP1;P1;durP2;ratioP2;P2;SDS_P1;SDS_P2;PMS_P1;PMS_P2;Temp;Humidity;BMP_temperature;BMP_pressure;BME280_temperature;BME280_humidity;BME280_pressure;Samples;Min_cycle;Max_cycle;Signal;HPM_P1;HPM_P2
2020/12/22 00:01:55;;;;;;;3.00;2.70;;;9.00;99.90;;;;;;5039781;28;20298;-66
2020/12/22 00:04:24;;;;;;;4.57;2.83;;;9.00;99.90;;;;;;5036507;28;20597;-66
2020/12/22 00:06:50;;;;;;;6.37;3.10;;;9.00;99.90;;;;;;5042419;28;20328;-66
2020/12/22 00:09:17;;;;;;;4.53;2.87;;;9.00;99.90;;;;;;5040179;28;20227;-66
2020/12/22 00:11:43;;;;;;;5.17;2.80;;;9.00;99.90;;;;;;5044617;28;20211;-66
2020/12/22 00:14:10;;;;;;;3.30;2.30;;;9.00;99.90;;;;;;5040887;28;20210;-65
2020/12/22 00:16:37;;;;;;;2.87;2.50;;;9.00;99.90;;;;;;5045848;28;20202;-66
2020/12/22 00:19:03;;;;;;;2.50;2.30;;;9.00;99.90;;;;;;5032523;28;20307;-66
2020/12/22 00:21:33;;;;;;;2.40;2.17;;;9.10;99.90;;;;;;5032816;28;20192;-66
2020/12/22 00:23:59;;;;;;;1.97;1.87;;;9.10;99.90;;;;;;5033662;28;20203;-66
2020/12/22 00:26:27;;;;;;;2.97;1.80;;;9.10;99.90;;;;;;5033652;28;20283;-65
2020/12/22 00:28:53;;;;;;;2.43;2.00;;;9.10;99.90;;;;;;5033411;28;20608;-66
2020/12/22 00:31:20;;;;;;;1.97;1.70;;;9.20;99.90;;;;;;5033825;28;20230;-66
2020/12/22 00:33:46;;;;;;;3.70;1.67;;;9.00;99.90;;;;;;5034088;28;20204;-66
2020/12/22 00:36:13;;;;;;;2.13;1.93;;;9.20;99.90;;;;;;5033499;28;20210;-66
2020/12/22 00:38:40;;;;;;;1.60;1.50;;;9.20;99.90;;;;;;5034021;28;20227;-66
2020/12/22 00:41:11;;;;;;;2.43;1.67;;;9.20;99.90;;;;;;5033077;28;20200;-65
2020/12/22 00:43:40;;;;;;;1.60;1.30;;;9.20;99.90;;;;;;5033743;28;20298;-65
2020/12/22 00:46:06;;;;;;;1.40;1.30;;;9.20;99.90;;;;;;5033399;28;20210;-65
2020/12/22 00:48:32;;;;;;;3.50;1.63;;;9.20;99.90;;;;;;5033391;28;20226;-65
2020/12/22 00:50:59;;;;;;;1.97;1.40;;;9.30;99.90;;;;;;5033306;28;20602;-66
2020/12/22 00:53:25;;;;;;;2.23;1.43;;;9.30;99.90;;;;;;5033026;28;20294;-65
2020/12/22 00:55:52;;;;;;;4.07;1.50;;;9.30;99.90;;;;;;5033240;28;20211;-66
2020/12/22 00:58:18;;;;;;;0.90;0.90;;;9.30;99.90;;;;;;5033342;28;20204;-65
2020/12/22 01:00:45;;;;;;;1.60;1.50;;;9.30;99.90;;;;;;5033589;28;20196;-65
2020/12/22 01:03:12;;;;;;;1.30;1.20;;;9.40;99.90;;;;;;5032501;28;20196;-64
2020/12/22 01:05:38;;;;;;;1.87;1.17;;;9.40;99.90;;;;;;5033063;28;20214;-66
2020/12/22 01:08:04;;;;;;;0.90;0.90;;;9.40;99.90;;;;;;5030070;28;20199;-65
2020/12/22 01:10:30;;;;;;;1.10;1.00;;;9.50;99.90;;;;;;5033247;28;20257;-66
2020/12/22 01:12:57;;;;;;;1.73;1.13;;;9.50;99.90;;;;;;5032510;28;20207;-66
2020/12/22 01:15:23;;;;;;;0.90;0.90;;;9.50;99.90;;;;;;5033251;28;20279;-66
2020/12/22 01:17:50;;;;;;;1.40;1.30;;;9.50;99.90;;;;;;5033416;28;20203;-66
2020/12/22 01:20:17;;;;;;;4.97;2.47;;;9.40;99.90;;;;;;5033275;28;20227;-66
2020/12/22 01:22:43;;;;;;;1.13;1.03;;;9.50;99.90;;;;;;5032263;28;20196;-66
2020/12/22 01:25:09;;;;;;;2.07;1.47;;;9.50;99.90;;;;;;5030068;28;20732;-65
2020/12/22 01:27:35;;;;;;;1.57;1.43;;;9.50;99.90;;;;;;5032294;28;20196;-65
2020/12/22 01:30:02;;;;;;;1.40;1.30;;;9.60;99.90;;;;;;5030996;28;20330;-66
2020/12/22 01:32:28;;;;;;;2.00;1.60;;;9.60;99.90;;;;;;5031649;28;20223;-66
2020/12/22 01:34:56;;;;;;;2.30;1.40;;;9.60;99.90;;;;;;5031415;28;20332;-66
2020/12/22 01:37:22;;;;;;;8.50;1.70;;;9.60;99.90;;;;;;5031580;28;20200;-66
2020/12/22 01:39:48;;;;;;;1.43;1.33;;;9.50;99.90;;;;;;5032036;28;20314;-66
2020/12/22 01:42:15;;;;;;;3.30;1.07;;;9.50;99.90;;;;;;5030871;28;20200;-65
2020/12/22 01:44:41;;;;;;;1.50;1.37;;;9.50;99.90;;;;;;5030048;28;20208;-66
2020/12/22 01:47:09;;;;;;;1.10;1.00;;;9.50;99.90;;;;;;5026437;28;20749;-66
2020/12/22 01:49:36;;;;;;;1.30;1.20;;;9.60;99.90;;;;;;5019148;28;20230;-66
2020/12/22 01:52:03;;;;;;;0.93;0.93;;;9.50;99.90;;;;;;5019041;28;20231;-66
2020/12/22 01:54:30;;;;;;;0.97;0.70;;;9.60;99.90;;;;;;5022476;28;20208;-66
2020/12/22 01:56:57;;;;;;;1.37;0.70;;;9.50;99.90;;;;;;5022874;28;20211;-65
2020/12/22 01:59:23;;;;;;;2.27;0.97;;;9.60;99.90;;;;;;5023876;28;20227;-66
2020/12/22 02:01:52;;;;;;;0.97;0.87;;;9.60;99.90;;;;;;5016180;28;20652;-66
2020/12/22 02:04:20;;;;;;;1.07;0.90;;;9.70;99.90;;;;;;5021686;28;20200;-65
2020/12/22 02:06:46;;;;;;;1.80;0.70;;;9.80;99.90;;;;;;5031082;28;20203;-65
2020/12/22 02:09:14;;;;;;;0.90;0.90;;;9.80;99.90;;;;;;5032178;28;20223;-65
2020/12/22 02:11:41;;;;;;;0.50;0.50;;;9.80;99.90;;;;;;5031018;28;20218;-65
2020/12/22 02:14:10;;;;;;;0.57;0.57;;;9.90;99.90;;;;;;5031798;28;20257;-65
2020/12/22 02:16:37;;;;;;;0.63;0.37;;;10.00;99.90;;;;;;5031790;28;20666;-65
2020/12/22 02:19:04;;;;;;;0.77;0.77;;;9.90;99.90;;;;;;5032134;28;20219;-65
2020/12/22 02:21:31;;;;;;;0.60;0.50;;;9.90;99.90;;;;;;5032004;28;20192;-65
2020/12/22 02:23:57;;;;;;;0.77;0.57;;;10.00;99.90;;;;;;5032262;28;20202;-65
2020/12/22 02:26:24;;;;;;;0.70;0.70;;;10.00;99.90;;;;;;5031967;28;20207;-65
2020/12/22 02:28:52;;;;;;;0.40;0.40;;;10.00;99.90;;;;;;5032286;28;20242;-65
2020/12/22 02:31:19;;;;;;;1.17;0.50;;;10.10;99.90;;;;;;5031463;28;20249;-65
2020/12/22 02:33:45;;;;;;;0.50;0.50;;;10.20;99.90;;;;;;5031978;28;20200;-65
2020/12/22 02:36:13;;;;;;;0.30;0.30;;;10.30;99.90;;;;;;5031521;28;20845;-65
2020/12/22 02:38:41;;;;;;;0.40;0.33;;;10.30;99.90;;;;;;5031862;28;20226;-65
2020/12/22 02:41:08;;;;;;;0.57;0.57;;;10.30;99.90;;;;;;5031599;28;20227;-64
2020/12/22 02:43:34;;;;;;;0.77;0.60;;;10.30;99.90;;;;;;5030826;28;20253;-66
2020/12/22 02:46:01;;;;;;;0.50;0.50;;;10.30;99.90;;;;;;5029930;28;20199;-65
2020/12/22 02:48:27;;;;;;;0.37;0.37;;;10.40;99.90;;;;;;5031007;28;20710;-66
2020/12/22 02:50:53;;;;;;;1.17;0.60;;;10.40;99.90;;;;;;5031963;28;20313;-66
2020/12/22 02:53:20;;;;;;;0.43;0.43;;;10.40;99.90;;;;;;5031382;28;20229;-66
2020/12/22 02:55:47;;;;;;;0.47;0.47;;;10.40;99.90;;;;;;5031794;28;20555;-67
2020/12/22 02:58:14;;;;;;;1.23;0.67;;;10.30;99.90;;;;;;5031273;28;20286;-66
2020/12/22 03:00:40;;;;;;;0.70;0.70;;;10.40;99.90;;;;;;5031506;28;20214;-66
2020/12/22 03:03:07;;;;;;;1.20;0.63;;;10.50;99.90;;;;;;5031241;28;20204;-66
2020/12/22 03:05:33;;;;;;;0.70;0.50;;;10.50;99.90;;;;;;5031302;28;20206;-66
2020/12/22 03:07:59;;;;;;;0.30;0.30;;;10.50;99.90;;;;;;5031805;28;20199;-66
2020/12/22 03:10:26;;;;;;;0.30;0.30;;;10.60;99.90;;;;;;5031385;28;20322;-65
2020/12/22 03:12:53;;;;;;;0.40;0.40;;;10.70;99.90;;;;;;5031072;28;20212;-66
2020/12/22 03:15:20;;;;;;;0.77;0.50;;;10.70;99.90;;;;;;5026379;28;20200;-66
2020/12/22 03:17:46;;;;;;;0.50;0.30;;;10.90;99.90;;;;;;5029292;28;20207;-66
2020/12/22 03:20:13;;;;;;;1.27;0.63;;;10.70;99.90;;;;;;5018763;28;20220;-66
2020/12/22 03:22:41;;;;;;;0.40;0.37;;;10.80;99.90;;;;;;5016342;28;20192;-66
2020/12/22 03:25:09;;;;;;;0.33;0.33;;;10.80;99.90;;;;;;5030631;28;20306;-66
2020/12/22 03:27:35;;;;;;;0.40;0.40;;;10.90;99.90;;;;;;5030935;28;20732;-66
2020/12/22 03:30:04;;;;;;;0.40;0.40;;;10.80;99.90;;;;;;5031264;28;20706;-66
2020/12/22 03:32:30;;;;;;;0.47;0.37;;;10.80;99.90;;;;;;5031339;28;20223;-66
2020/12/22 03:34:56;;;;;;;0.40;0.40;;;10.90;99.90;;;;;;5031018;28;20260;-65
2020/12/22 03:37:23;;;;;;;1.00;0.40;;;10.90;99.90;;;;;;5031386;28;20245;-66
2020/12/22 03:39:50;;;;;;;0.20;0.20;;;10.90;99.90;;;;;;5030902;28;20713;-67
2020/12/22 03:42:16;;;;;;;0.27;0.27;;;10.90;99.90;;;;;;5031617;28;20640;-66
2020/12/22 03:44:43;;;;;;;0.83;0.33;;;10.90;99.90;;;;;;5025533;28;20576;-66
2020/12/22 03:47:10;;;;;;;0.40;0.33;;;11.00;99.90;;;;;;5030087;28;20229;-66
2020/12/22 03:49:37;;;;;;;0.30;0.30;;;11.00;99.90;;;;;;5030682;28;20775;-66
2020/12/22 03:52:04;;;;;;;0.37;0.37;;;11.00;99.90;;;;;;5030572;28;20714;-66
2020/12/22 03:54:30;;;;;;;0.20;0.20;;;11.00;99.90;;;;;;5033849;28;20203;-65
2020/12/22 03:56:57;;;;;;;0.43;0.33;;;10.90;99.90;;;;;;5034688;28;20253;-66
2020/12/22 03:59:23;;;;;;;2.03;0.47;;;10.90;99.90;;;;;;5034831;28;20228;-66
2020/12/22 04:01:50;;;;;;;0.33;0.27;;;10.90;99.90;;;;;;5034302;28;20203;-66
2020/12/22 04:04:19;;;;;;;1.73;0.27;;;10.90;99.90;;;;;;5034694;28;20206;-66
2020/12/22 04:06:46;;;;;;;0.50;0.50;;;10.90;99.90;;;;;;5034235;28;20861;-66
2020/12/22 04:09:12;;;;;;;1.40;0.30;;;11.00;99.90;;;;;;5034554;28;20744;-65
2020/12/22 04:11:40;;;;;;;0.30;0.30;;;11.00;99.90;;;;;;5034506;28;20224;-66
2020/12/22 04:14:07;;;;;;;0.30;0.30;;;11.10;99.90;;;;;;5033975;28;20743;-66
2020/12/22 04:16:33;;;;;;;0.40;0.20;;;11.10;99.90;;;;;;5034323;28;20205;-64
2020/12/22 04:18:59;;;;;;;0.67;0.10;;;11.20;99.90;;;;;;5034112;28;20610;-66
2020/12/22 04:21:27;;;;;;;0.30;0.20;;;11.30;99.90;;;;;;5034553;28;20246;-66
2020/12/22 04:23:53;;;;;;;0.20;0.20;;;11.30;99.90;;;;;;5033540;28;20733;-66
2020/12/22 04:26:19;;;;;;;0.37;0.37;;;11.40;99.90;;;;;;5014390;28;20196;-67
2020/12/22 04:28:45;;;;;;;1.90;0.87;;;11.40;99.90;;;;;;5031716;28;20596;-68
2020/12/22 04:31:12;;;;;;;0.40;0.40;;;11.30;99.90;;;;;;5034532;28;20228;-68
2020/12/22 04:33:38;;;;;;;0.53;0.23;;;11.30;99.90;;;;;;5033976;28;20199;-68
2020/12/22 04:36:05;;;;;;;0.20;0.20;;;11.30;99.90;;;;;;5034061;28;20663;-67
2020/12/22 04:38:32;;;;;;;0.50;0.40;;;11.30;99.90;;;;;;5033859;28;20216;-67
2020/12/22 04:40:59;;;;;;;0.60;0.30;;;11.30;99.90;;;;;;5034175;28;20211;-67
2020/12/22 04:43:26;;;;;;;0.40;0.30;;;11.30;99.90;;;;;;5033550;28;20261;-67
2020/12/22 04:45:53;;;;;;;0.97;0.20;;;11.30;99.90;;;;;;5034193;28;20245;-67
2020/12/22 04:48:23;;;;;;;0.40;0.30;;;11.40;99.90;;;;;;5033505;28;20286;-67
2020/12/22 04:50:50;;;;;;;0.47;0.13;;;11.40;99.90;;;;;;5025645;28;20200;-67
2020/12/22 04:53:18;;;;;;;1.30;0.30;;;11.40;99.90;;;;;;5033338;28;20654;-66
2020/12/22 04:55:45;;;;;;;0.30;0.23;;;11.40;99.90;;;;;;5033960;28;20287;-66
2020/12/22 04:58:11;;;;;;;0.23;0.23;;;11.40;99.90;;;;;;5032948;28;20210;-67
2020/12/22 05:00:37;;;;;;;0.20;0.20;;;11.40;99.90;;;;;;5033025;28;20612;-67
2020/12/22 05:03:05;;;;;;;0.43;0.37;;;11.40;99.90;;;;;;5033245;28;20202;-66
2020/12/22 05:05:31;;;;;;;0.10;0.10;;;11.50;99.90;;;;;;5032479;28;20200;-66
2020/12/22 05:07:58;;;;;;;0.50;0.23;;;11.60;99.90;;;;;;5033852;28;20694;-66
2020/12/22 05:10:24;;;;;;;0.23;0.23;;;11.60;99.90;;;;;;5033726;28;20231;-67
2020/12/22 05:12:52;;;;;;;0.27;0.27;;;11.50;99.90;;;;;;5033289;28;20223;-66
2020/12/22 05:15:18;;;;;;;1.13;0.33;;;11.50;99.90;;;;;;5033111;28;20717;-66
2020/12/22 05:17:45;;;;;;;0.30;0.30;;;11.60;99.90;;;;;;5033755;28;20337;-66
2020/12/22 05:20:14;;;;;;;0.23;0.20;;;11.60;99.90;;;;;;5033037;28;20303;-66
2020/12/22 05:22:41;;;;;;;0.50;0.30;;;11.70;99.90;;;;;;5033405;28;20622;-66
2020/12/22 05:25:08;;;;;;;0.47;0.30;;;11.70;99.90;;;;;;5031081;28;20226;-66
2020/12/22 05:27:35;;;;;;;0.37;0.37;;;11.80;99.90;;;;;;5032767;28;20204;-66
2020/12/22 05:30:04;;;;;;;0.30;0.20;;;11.80;99.90;;;;;;5033051;28;20231;-66
2020/12/22 05:32:31;;;;;;;0.70;0.70;;;11.80;99.90;;;;;;5032736;28;20235;-66
2020/12/22 05:34:57;;;;;;;2.77;0.60;;;11.80;99.90;;;;;;5031388;28;20203;-66
2020/12/22 05:37:25;;;;;;;0.30;0.30;;;11.90;99.90;;;;;;5033297;28;20291;-67
2020/12/22 05:39:53;;;;;;;0.47;0.47;;;11.90;99.90;;;;;;5033122;28;20224;-67
2020/12/22 05:42:20;;;;;;;0.53;0.33;;;11.90;99.90;;;;;;5033124;28;20282;-66
2020/12/22 05:44:47;;;;;;;0.43;0.43;;;12.00;99.90;;;;;;5032062;28;20199;-66
2020/12/22 05:47:16;;;;;;;0.40;0.40;;;12.00;99.90;;;;;;5032826;28;20191;-66
2020/12/22 05:49:51;;;;;;;0.70;0.70;;;12.10;99.90;;;;;;5032590;28;20765;-66
2020/12/22 05:52:20;;;;;;;1.23;0.60;;;12.10;99.90;;;;;;5032911;28;20219;-66
2020/12/22 05:54:50;;;;;;;0.70;0.70;;;12.10;99.90;;;;;;5032252;28;20207;-67
2020/12/22 05:57:19;;;;;;;0.70;0.70;;;12.10;99.90;;;;;;5031859;28;20363;-66
2020/12/22 05:59:46;;;;;;;1.33;0.87;;;12.20;99.90;;;;;;5031129;28;20215;-66
2020/12/22 06:02:24;;;;;;;1.07;0.97;;;12.30;99.90;;;;;;5032426;28;20208;-66
2020/12/22 06:04:52;;;;;;;1.07;0.80;;;12.30;99.90;;;;;;5032439;28;20687;-66
2020/12/22 06:07:19;;;;;;;1.90;1.00;;;12.40;99.90;;;;;;5031517;28;20210;-66
2020/12/22 06:09:45;;;;;;;0.80;0.80;;;12.40;99.90;;;;;;5012695;28;20220;-67
2020/12/22 06:12:11;;;;;;;1.40;1.30;;;12.30;99.90;;;;;;5020029;28;20265;-66
2020/12/22 06:14:43;;;;;;;1.97;1.40;;;12.40;99.90;;;;;;5031723;28;20693;-66
2020/12/22 06:17:11;;;;;;;1.50;1.13;;;12.30;99.90;;;;;;5032234;28;20195;-66
2020/12/22 06:19:40;;;;;;;1.67;1.27;;;12.40;99.90;;;;;;5032276;28;20219;-67
2020/12/22 06:22:09;;;;;;;1.83;1.40;;;12.40;99.90;;;;;;5031699;28;20222;-66
2020/12/22 06:24:35;;;;;;;2.17;1.50;;;12.30;99.90;;;;;;5033037;28;20210;-64
2020/12/22 06:27:03;;;;;;;2.50;1.53;;;12.40;99.90;;;;;;5031881;28;20551;-65
2020/12/22 06:29:29;;;;;;;1.60;1.50;;;12.40;99.90;;;;;;5032114;28;20227;-65
2020/12/22 06:31:56;;;;;;;1.27;1.23;;;12.40;99.90;;;;;;5031736;28;20231;-65
2020/12/22 06:34:26;;;;;;;2.10;2.00;;;12.40;99.90;;;;;;5031894;28;20199;-65
2020/12/22 06:37:00;;;;;;;2.77;2.40;;;12.50;99.90;;;;;;5031907;28;20667;-65
2020/12/22 06:39:42;;;;;;;2.60;2.40;;;12.50;99.90;;;;;;5029625;28;20231;-65
2020/12/22 06:42:10;;;;;;;2.70;2.30;;;12.50;99.90;;;;;;5029921;28;20290;-65
2020/12/22 06:44:37;;;;;;;4.23;3.13;;;12.60;99.90;;;;;;5026637;28;20231;-66
2020/12/22 06:47:05;;;;;;;4.50;3.57;;;12.60;99.90;;;;;;5030483;28;20250;-66
2020/12/22 06:49:51;;;;;;;4.63;3.60;;;12.70;99.90;;;;;;5031776;28;20224;-66
2020/12/22 06:52:31;;;;;;;3.57;3.10;;;12.60;99.90;;;;;;5109992;22;20241;-60
2020/12/22 06:54:57;;;;;;;4.53;3.50;;;12.60;99.90;;;;;;5071790;28;20198;-60
2020/12/22 06:57:48;;;;;;;3.97;3.43;;;12.80;99.90;;;;;;5071063;28;20202;-58
2020/12/22 07:00:32;;;;;;;4.90;4.40;;;12.90;99.90;;;;;;5056553;28;20553;-57
2020/12/22 07:03:10;;;;;;;4.40;4.00;;;13.20;99.90;;;;;;5056559;28;20693;-57
2020/12/22 07:05:38;;;;;;;5.13;4.10;;;13.40;99.90;;;;;;5051758;28;20735;-55
2020/12/22 07:08:06;;;;;;;4.23;3.83;;;13.30;99.90;;;;;;5050963;28;20194;-58
2020/12/22 07:10:37;;;;;;;4.90;4.40;;;13.40;99.90;;;;;;5041667;28;20210;-59
2020/12/22 07:13:07;;;;;;;5.27;4.77;;;13.40;99.90;;;;;;5048141;28;20276;-58
2020/12/22 07:15:34;;;;;;;5.20;4.70;;;13.50;99.90;;;;;;5051283;28;20207;-57
2020/12/22 07:18:14;;;;;;;5.30;4.80;;;13.60;99.90;;;;;;5045991;28;20203;-55
2020/12/22 07:20:42;;;;;;;6.77;4.80;;;13.50;99.90;;;;;;5051063;28;20199;-59
2020/12/22 07:23:10;;;;;;;5.13;4.57;;;13.50;99.90;;;;;;5050573;28;20215;-57
2020/12/22 07:25:37;;;;;;;5.00;4.50;;;13.50;99.90;;;;;;5048743;28;20582;-54
2020/12/22 07:28:05;;;;;;;5.17;4.67;;;13.40;99.90;;;;;;5051766;28;20622;-56
2020/12/22 07:30:31;;;;;;;5.00;4.50;;;13.50;99.90;;;;;;5049464;28;20215;-54
2020/12/22 07:32:59;;;;;;;5.27;4.50;;;13.50;99.90;;;;;;5050928;28;20230;-54
2020/12/22 07:35:26;;;;;;;4.83;4.37;;;13.50;99.90;;;;;;5048177;28;20198;-54
2020/12/22 07:37:52;;;;;;;4.27;3.97;;;13.50;99.90;;;;;;5055037;28;20214;-58
2020/12/22 07:40:19;;;;;;;4.30;3.90;;;13.50;99.90;;;;;;5054999;28;20194;-56
2020/12/22 07:42:46;;;;;;;4.40;4.00;;;13.50;99.90;;;;;;5051801;28;20215;-56
2020/12/22 07:45:12;;;;;;;3.60;3.30;;;13.50;99.90;;;;;;5053689;28;20210;-55
2020/12/22 07:47:38;;;;;;;3.43;3.13;;;13.50;99.90;;;;;;5054856;28;20247;-60
2020/12/22 07:50:16;;;;;;;4.20;3.00;;;13.50;99.90;;;;;;5054374;28;20218;-59
2020/12/22 07:52:42;;;;;;;3.43;3.10;;;13.50;99.90;;;;;;5049170;28;20234;-59
2020/12/22 07:55:09;;;;;;;4.97;3.60;;;13.50;99.90;;;;;;5047909;28;20199;-60
2020/12/22 07:57:38;;;;;;;3.63;3.33;;;13.40;99.90;;;;;;5054539;28;20203;-58
2020/12/22 08:00:06;;;;;;;3.70;3.40;;;13.40;99.90;;;;;;5053967;28;20206;-57
2020/12/22 08:02:33;;;;;;;6.80;3.57;;;13.40;99.90;;;;;;5047572;28;20752;-60
2020/12/22 08:05:08;;;;;;;5.07;3.60;;;13.30;99.90;;;;;;5053743;28;20272;-57
2020/12/22 08:07:35;;;;;;;3.73;3.30;;;13.20;99.90;;;;;;5052041;28;20194;-58
2020/12/22 08:10:09;;;;;;;3.77;3.40;;;13.20;99.90;;;;;;5057050;28;20732;-55
2020/12/22 08:12:35;;;;;;;5.03;3.50;;;13.20;99.90;;;;;;5057311;28;20598;-58
2020/12/22 08:15:04;;;;;;;4.20;2.80;;;13.10;99.90;;;;;;5054025;28;20280;-60
2020/12/22 08:17:30;;;;;;;3.97;2.90;;;13.10;99.90;;;;;;5054108;28;20203;-59
2020/12/22 08:20:01;;;;;;;2.50;2.30;;;13.10;99.90;;;;;;5042269;28;20204;-61
2020/12/22 08:22:28;;;;;;;2.97;2.73;;;13.10;99.90;;;;;;5038524;28;20219;-60
2020/12/22 08:24:55;;;;;;;2.93;2.70;;;13.10;99.90;;;;;;5048791;28;20242;-57
2020/12/22 08:27:22;;;;;;;3.13;2.83;;;13.10;99.90;;;;;;5042194;28;20203;-59
2020/12/22 08:29:48;;;;;;;3.93;3.30;;;13.10;99.90;;;;;;5046491;28;20202;-59
2020/12/22 08:32:23;;;;;;;4.17;2.80;;;13.20;99.90;;;;;;5051887;28;20241;-58
2020/12/22 08:34:52;;;;;;;3.80;2.90;;;13.20;99.90;;;;;;5052339;28;20206;-58
2020/12/22 08:37:24;;;;;;;3.23;2.93;;;13.20;99.90;;;;;;5053165;28;20241;-59
2020/12/22 08:39:50;;;;;;;3.80;2.97;;;13.20;99.90;;;;;;5057127;28;20662;-57
2020/12/22 08:42:17;;;;;;;3.73;3.10;;;13.20;99.90;;;;;;5053229;28;20223;-57
2020/12/22 08:44:49;;;;;;;4.20;3.30;;;13.20;99.90;;;;;;5053732;28;20199;-59
2020/12/22 08:47:18;;;;;;;4.43;3.70;;;13.20;99.90;;;;;;5052851;28;20207;-59
2020/12/22 08:49:45;;;;;;;3.63;3.33;;;13.30;99.90;;;;;;5053618;28;20203;-57
2020/12/22 08:52:14;;;;;;;3.53;3.23;;;13.30;99.90;;;;;;5052900;28;20223;-54
2020/12/22 08:54:41;;;;;;;3.10;2.90;;;13.20;99.90;;;;;;5053248;28;20230;-55
2020/12/22 08:57:09;;;;;;;2.87;2.30;;;13.20;99.90;;;;;;5052789;28;20267;-58
2020/12/22 08:59:35;;;;;;;2.20;2.10;;;13.20;99.90;;;;;;5053605;28;20209;-57
2020/12/22 09:02:02;;;;;;;2.20;2.10;;;13.10;99.90;;;;;;5052353;28;20655;-59
2020/12/22 09:04:30;;;;;;;2.37;1.80;;;13.20;99.90;;;;;;5052197;28;20203;-56
2020/12/22 09:06:57;;;;;;;1.90;1.80;;;13.10;99.90;;;;;;5049589;28;20214;-59
2020/12/22 09:09:27;;;;;;;1.87;1.77;;;13.10;99.90;;;;;;5051245;28;20206;-55
2020/12/22 09:12:04;;;;;;;2.37;1.20;;;13.10;99.90;;;;;;5049716;28;20234;-53
2020/12/22 09:14:39;;;;;;;2.00;1.37;;;13.10;99.90;;;;;;5051068;28;20201;-60
2020/12/22 09:17:06;;;;;;;1.47;1.10;;;13.20;99.90;;;;;;5051525;28;20213;-55
2020/12/22 09:19:44;;;;;;;2.23;1.20;;;13.30;99.90;;;;;;5051260;28;20221;-60
2020/12/22 09:22:12;;;;;;;2.67;0.90;;;13.30;99.90;;;;;;5052919;28;20215;-56
2020/12/22 09:24:39;;;;;;;2.30;1.03;;;13.40;99.90;;;;;;5052368;28;20255;-60
2020/12/22 09:27:07;;;;;;;2.20;1.00;;;13.40;99.90;;;;;;5052597;28;20211;-60
2020/12/22 09:29:36;;;;;;;0.80;0.60;;;13.50;99.90;;;;;;5052449;28;20334;-57
2020/12/22 09:32:03;;;;;;;2.13;1.00;;;13.50;99.90;;;;;;5052380;28;20233;-61
2020/12/22 09:34:31;;;;;;;1.23;0.60;;;13.50;99.90;;;;;;5052417;28;20203;-56
2020/12/22 09:37:00;;;;;;;1.00;0.57;;;13.50;99.90;;;;;;5052577;28;20209;-56
2020/12/22 09:39:28;;;;;;;0.83;0.70;;;13.50;99.90;;;;;;5051660;28;20568;-56
2020/12/22 09:41:55;;;;;;;1.80;1.10;;;13.50;99.90;;;;;;5053058;28;20223;-54
2020/12/22 09:44:22;;;;;;;1.70;0.97;;;13.50;99.90;;;;;;5051191;28;20208;-57
2020/12/22 09:46:49;;;;;;;1.77;0.93;;;13.60;99.90;;;;;;5051638;28;20203;-59
2020/12/22 09:49:16;;;;;;;1.73;0.70;;;13.60;99.90;;;;;;5052440;28;20198;-58
2020/12/22 09:51:42;;;;;;;1.77;0.70;;;13.60;99.90;;;;;;5051261;28;20735;-58
2020/12/22 09:54:09;;;;;;;1.73;1.27;;;13.60;99.90;;;;;;5052172;28;20231;-58
2020/12/22 09:56:36;;;;;;;2.00;1.00;;;13.50;99.90;;;;;;5052123;28;20210;-57
2020/12/22 09:59:02;;;;;;;2.03;0.93;;;13.60;99.90;;;;;;5052027;28;20214;-55
2020/12/22 10:01:29;;;;;;;2.10;1.10;;;13.60;99.90;;;;;;5051016;28;20219;-59
2020/12/22 10:03:56;;;;;;;1.20;0.90;;;13.60;99.90;;;;;;5051937;28;20238;-60
2020/12/22 10:06:24;;;;;;;1.37;1.13;;;13.60;99.90;;;;;;5051979;28;20206;-58
2020/12/22 10:08:51;;;;;;;2.07;1.40;;;13.60;99.90;;;;;;5051832;28;20233;-59
2020/12/22 10:11:19;;;;;;;2.03;1.10;;;13.70;99.90;;;;;;5049355;28;20203;-58
2020/12/22 10:13:46;;;;;;;3.10;1.30;;;13.60;99.90;;;;;;5050784;28;20665;-57
2020/12/22 10:16:14;;;;;;;1.93;1.40;;;13.60;99.90;;;;;;5051546;28;20226;-56
2020/12/22 10:18:41;;;;;;;2.07;1.30;;;13.60;99.90;;;;;;5050814;28;20205;-58
2020/12/22 10:21:08;;;;;;;1.57;1.47;;;13.50;99.90;;;;;;5051293;28;20199;-60
2020/12/22 10:23:36;;;;;;;4.03;1.73;;;13.60;99.90;;;;;;5052086;28;20575;-56
2020/12/22 10:26:03;;;;;;;2.17;1.40;;;13.50;99.90;;;;;;5051028;28;20670;-54
2020/12/22 10:28:31;;;;;;;4.80;1.43;;;13.50;99.90;;;;;;5063247;28;20263;-58
2020/12/22 10:30:58;;;;;;;3.80;1.60;;;13.50;99.90;;;;;;5062016;28;20196;-59
2020/12/22 10:33:24;;;;;;;1.50;1.40;;;13.40;99.90;;;;;;5051709;28;20218;-55
2020/12/22 10:35:51;;;;;;;3.70;1.80;;;13.50;99.90;;;;;;5051845;28;20248;-58
2020/12/22 10:38:17;;;;;;;3.47;2.00;;;13.50;99.90;;;;;;5050294;28;20567;-55
2020/12/22 10:40:44;;;;;;;2.87;1.67;;;13.50;99.90;;;;;;5043117;28;20634;-59
2020/12/22 10:43:10;;;;;;;2.67;1.77;;;13.50;99.90;;;;;;5050845;28;20227;-61
2020/12/22 10:45:38;;;;;;;1.90;1.33;;;13.50;99.90;;;;;;5051729;28;20260;-59
2020/12/22 10:48:06;;;;;;;2.23;1.93;;;13.50;99.90;;;;;;5051289;28;20213;-55
2020/12/22 10:50:32;;;;;;;4.20;1.67;;;13.60;99.90;;;;;;5051036;28;20206;-57
2020/12/22 10:52:59;;;;;;;2.53;1.60;;;13.60;99.90;;;;;;5050181;28;20231;-56
2020/12/22 10:55:25;;;;;;;1.73;1.60;;;13.50;99.90;;;;;;5049653;28;20207;-55
2020/12/22 10:57:52;;;;;;;2.30;2.10;;;13.50;99.90;;;;;;5050450;28;20203;-56
2020/12/22 11:00:18;;;;;;;2.23;2.03;;;13.40;99.90;;;;;;5050930;28;20203;-57
2020/12/22 11:02:47;;;;;;;1.77;1.67;;;13.50;99.90;;;;;;5050508;28;20260;-55
2020/12/22 11:05:14;;;;;;;4.73;1.67;;;13.60;99.90;;;;;;5050230;28;20654;-56
2020/12/22 11:07:44;;;;;;;1.60;1.30;;;13.70;99.90;;;;;;5051080;28;20453;-57
2020/12/22 11:10:11;;;;;;;2.10;1.10;;;13.80;99.90;;;;;;5050669;28;20195;-56
2020/12/22 11:12:37;;;;;;;2.27;1.30;;;13.80;99.90;;;;;;5048589;28;20226;-58
2020/12/22 11:15:04;;;;;;;1.60;1.50;;;13.70;99.90;;;;;;5049816;28;20618;-56
2020/12/22 11:17:30;;;;;;;3.33;1.10;;;13.70;99.90;;;;;;5050936;28;20317;-56
2020/12/22 11:19:57;;;;;;;1.90;1.30;;;13.60;99.90;;;;;;5050965;28;20290;-60
2020/12/22 11:22:23;;;;;;;2.60;1.20;;;13.70;99.90;;;;;;5050672;28;20210;-57
2020/12/22 11:24:50;;;;;;;3.80;1.30;;;13.80;99.90;;;;;;5050457;28;20206;-54
2020/12/22 11:27:16;;;;;;;1.30;1.20;;;13.80;99.90;;;;;;5050929;28;20221;-53
2020/12/22 11:29:43;;;;;;;2.27;1.40;;;13.70;99.90;;;;;;5050534;28;20379;-56
2020/12/22 11:32:10;;;;;;;1.43;1.03;;;13.80;99.90;;;;;;5050543;28;20594;-59
2020/12/22 11:34:36;;;;;;;1.10;1.00;;;13.80;99.90;;;;;;5050212;28;20207;-57
2020/12/22 11:37:04;;;;;;;0.97;0.90;;;13.70;99.90;;;;;;5050514;28;20304;-59
2020/12/22 11:39:30;;;;;;;2.63;1.27;;;13.80;99.90;;;;;;5050446;28;20198;-56
2020/12/22 11:42:00;;;;;;;3.33;1.20;;;13.90;99.90;;;;;;5050391;28;20725;-57
2020/12/22 11:44:26;;;;;;;2.27;1.20;;;13.80;99.90;;;;;;5050398;28;20231;-54
2020/12/22 11:46:53;;;;;;;1.23;1.00;;;13.80;99.90;;;;;;5047596;28;20204;-57
2020/12/22 11:49:19;;;;;;;2.30;1.30;;;13.90;99.90;;;;;;5048637;28;20233;-58
2020/12/22 11:51:45;;;;;;;2.33;1.27;;;13.80;99.90;;;;;;5049372;28;20238;-56
2020/12/22 11:54:12;;;;;;;1.30;1.20;;;13.80;99.90;;;;;;5049783;28;20214;-58
2020/12/22 11:56:39;;;;;;;1.20;1.10;;;13.90;99.90;;;;;;5048969;28;20199;-58
2020/12/22 11:59:05;;;;;;;2.90;1.30;;;13.80;99.90;;;;;;5050703;28;20454;-57
2020/12/22 12:01:31;;;;;;;1.93;1.07;;;13.70;99.90;;;;;;5049844;28;20939;-57
2020/12/22 12:03:58;;;;;;;1.20;1.10;;;13.80;99.90;;;;;;5050108;28;20204;-58
2020/12/22 12:06:24;;;;;;;1.23;1.13;;;13.80;99.90;;;;;;5050041;28;20260;-56
2020/12/22 12:08:50;;;;;;;2.27;1.63;;;13.90;99.90;;;;;;5050261;28;20211;-55
2020/12/22 12:11:18;;;;;;;1.60;1.37;;;13.90;99.90;;;;;;5050338;28;20244;-57
2020/12/22 12:13:44;;;;;;;2.47;1.30;;;13.90;99.90;;;;;;5050639;28;20218;-61
2020/12/22 12:16:10;;;;;;;1.77;1.53;;;13.90;99.90;;;;;;5054057;28;20218;-55
2020/12/22 12:18:37;;;;;;;1.00;1.00;;;13.90;99.90;;;;;;5054373;28;20666;-57
2020/12/22 12:21:05;;;;;;;1.43;1.10;;;13.90;99.90;;;;;;5053763;28;20293;-56
2020/12/22 12:23:31;;;;;;;1.70;1.60;;;13.90;99.90;;;;;;5053688;28;20203;-57
2020/12/22 12:25:57;;;;;;;1.83;1.47;;;13.90;99.90;;;;;;5053283;28;20264;-57
2020/12/22 12:28:25;;;;;;;2.37;1.20;;;13.90;99.90;;;;;;5052481;28;20213;-57
2020/12/22 12:30:51;;;;;;;1.83;1.30;;;13.90;99.90;;;;;;5053857;28;20207;-57
2020/12/22 12:33:17;;;;;;;1.67;1.37;;;13.90;99.90;;;;;;5053484;28;20223;-51
2020/12/22 12:35:43;;;;;;;2.17;1.13;;;14.00;99.90;;;;;;5052537;28;20199;-58
2020/12/22 12:38:10;;;;;;;1.00;0.90;;;13.90;99.90;;;;;;5048068;28;20221;-54
2020/12/22 12:40:36;;;;;;;1.20;1.10;;;13.90;99.90;;;;;;5056685;28;20239;-56
2020/12/22 12:43:05;;;;;;;1.50;1.13;;;13.80;99.90;;;;;;5053661;28;20701;-58
2020/12/22 12:45:32;;;;;;;2.00;1.00;;;13.80;99.90;;;;;;5052939;28;20289;-57
2020/12/22 12:47:58;;;;;;;1.23;1.13;;;13.80;99.90;;;;;;5053528;28;20203;-55
2020/12/22 12:50:25;;;;;;;2.53;0.97;;;13.70;99.90;;;;;;5052958;28;20218;-57